createdAt,value
2023-02-04T00:02:14.099Z,102387.06
2023-02-04T00:04:40.378Z,102392.66
2023-02-04T00:07:06.638Z,102387.34
2023-02-04T00:09:33.094Z,102384.06
2023-02-04T00:11:59.544Z,102388.81
2023-02-04T00:14:25.776Z,102383.56
2023-02-04T00:16:52.133Z,102388.06
2023-02-04T00:19:18.405Z,102388.34
2023-02-04T00:21:44.666Z,102400.09
2023-02-04T00:24:10.921Z,102405.13
2023-02-04T00:26:37.149Z,102413.25
2023-02-04T00:29:03.409Z,102411.88
2023-02-04T00:31:31.003Z,102419.72
2023-02-04T00:33:57.634Z,102420.31
2023-02-04T00:36:24.111Z,102421.44
2023-02-04T00:38:50.600Z,102419.25
2023-02-04T00:41:17.115Z,102428.72
2023-02-04T00:43:43.441Z,102412.84
2023-02-04T00:46:10.412Z,102411.50
2023-02-04T00:48:36.638Z,102419.56
2023-02-04T00:51:02.995Z,102411.50
2023-02-04T00:53:29.491Z,102417.59
2023-02-04T00:55:56.098Z,102429.84
2023-02-04T00:58:22.552Z,102432.31
2023-02-04T01:00:49.078Z,102445.94
2023-02-04T01:03:15.394Z,102448.44
2023-02-04T01:05:41.655Z,102440.38
2023-02-04T01:08:07.871Z,102455.09
2023-02-04T01:10:34.342Z,102459.56
2023-02-04T01:13:00.940Z,102447.59
2023-02-04T01:15:27.250Z,102459.56
2023-02-04T01:17:53.631Z,102446.47
2023-02-04T01:20:20.019Z,102451.72
2023-02-04T01:22:46.294Z,102461.22
2023-02-04T01:25:12.592Z,102467.00
2023-02-04T01:27:38.884Z,102466.19
2023-02-04T01:30:06.250Z,102473.41
2023-02-04T01:32:32.508Z,102473.09
2023-02-04T01:34:58.831Z,102472.28
2023-02-04T01:37:25.215Z,102477.00
2023-02-04T01:39:51.463Z,102485.34
2023-02-04T01:42:18.024Z,102485.34
2023-02-04T01:44:44.433Z,102489.28
2023-02-04T01:47:10.830Z,102491.22
2023-02-04T01:49:37.512Z,102496.78
2023-02-04T01:52:04.411Z,102497.63
2023-02-04T01:54:30.858Z,102495.94
2023-02-04T01:56:57.437Z,102500.97
2023-02-04T01:59:23.902Z,102506.53
2023-02-04T02:01:51.732Z,102503.75
2023-02-04T02:04:26.878Z,102505.41
2023-02-04T02:06:55.266Z,102500.97
2023-02-04T02:09:21.604Z,102512.13
2023-02-04T02:11:48.104Z,102515.41
2023-02-04T02:14:14.713Z,102513.19
2023-02-04T02:16:41.192Z,102507.63
2023-02-04T02:19:08.842Z,102505.34
2023-02-04T02:21:40.505Z,102517.03
2023-02-04T02:24:24.181Z,102522.28
2023-02-04T02:26:50.452Z,102517.25
2023-02-04T02:29:16.740Z,102516.66
2023-02-04T02:31:43.404Z,102514.69
2023-02-04T02:34:09.922Z,102515.25
2023-02-04T02:36:36.429Z,102526.91
2023-02-04T02:39:03.018Z,102522.97
2023-02-04T02:41:29.393Z,102519.06
2023-02-04T02:43:55.777Z,102525.19
2023-02-04T02:46:22.175Z,102524.03
2023-02-04T02:48:48.765Z,102528.19
2023-02-04T02:51:15.020Z,102531.81
2023-02-04T02:53:48.175Z,102535.94
2023-02-04T02:56:14.515Z,102523.66
2023-02-04T02:58:40.768Z,102528.97
2023-02-04T03:01:08.562Z,102531.75
2023-02-04T03:03:40.518Z,102544.22
2023-02-04T03:06:12.732Z,102537.50
2023-02-04T03:08:39.747Z,102540.31
2023-02-04T03:11:06.127Z,102542.81
2023-02-04T03:13:33.920Z,102540.03
2023-02-04T03:16:00.819Z,102540.84
2023-02-04T03:18:28.177Z,102533.31
2023-02-04T03:20:54.628Z,102538.06
2023-02-04T03:23:21.338Z,102538.06
2023-02-04T03:25:47.775Z,102537.25
2023-02-04T03:28:14.302Z,102546.41
2023-02-04T03:30:40.680Z,102546.09
2023-02-04T03:33:07.276Z,102544.16
2023-02-04T03:35:33.562Z,102549.44
2023-02-04T03:38:00.159Z,102548.63
2023-02-04T03:40:26.406Z,102554.19
2023-02-04T03:42:52.842Z,102554.69
2023-02-04T03:45:20.193Z,102554.19
2023-02-04T03:47:46.516Z,102555.00
2023-02-04T03:50:14.277Z,102561.41
2023-02-04T03:52:40.603Z,102560.56
2023-02-04T03:55:07.038Z,102573.66
2023-02-04T03:57:33.350Z,102569.19
2023-02-04T03:59:59.555Z,102569.50
2023-02-04T04:02:25.879Z,102565.59
2023-02-04T04:04:52.374Z,102571.47
2023-02-04T04:07:18.843Z,102576.22
2023-02-04T04:09:45.334Z,102580.94
2023-02-04T04:12:11.565Z,102585.97
2023-02-04T04:14:38.139Z,102597.41
2023-02-04T04:17:04.449Z,102601.59
2023-02-04T04:19:32.167Z,102604.38
2023-02-04T04:21:58.562Z,102606.66
2023-02-04T04:24:25.015Z,102611.41
2023-02-04T04:26:51.725Z,102615.00
2023-02-04T04:29:18.220Z,102624.19
2023-02-04T04:31:45.035Z,102621.41
2023-02-04T04:34:11.514Z,102622.22
2023-02-04T04:39:04.585Z,102622.22
2023-02-04T04:41:31.067Z,102621.09
2023-02-04T04:43:57.345Z,102630.00
2023-02-04T04:46:24.395Z,102623.28
2023-02-04T04:48:50.702Z,102626.91
2023-02-04T04:51:16.980Z,102619.94
2023-02-04T04:53:45.294Z,102620.75
2023-02-04T04:56:11.591Z,102628.78
2023-02-04T04:58:40.725Z,102634.38
2023-02-04T05:01:07.133Z,102644.38
2023-02-04T05:03:33.961Z,102644.09
2023-02-04T05:06:00.173Z,102648.53
2023-02-04T05:08:28.648Z,102651.84
2023-02-04T05:10:54.921Z,102663.78
2023-02-04T05:13:21.739Z,102663.53
2023-02-04T05:15:48.040Z,102654.84
2023-02-04T05:18:14.588Z,102658.47
2023-02-04T05:20:42.163Z,102654.56
2023-02-04T05:23:08.657Z,102654.28
2023-02-04T05:25:40.821Z,102656.75
2023-02-04T05:28:07.341Z,102663.16
2023-02-04T05:30:34.275Z,102663.69
2023-02-04T05:33:00.772Z,102658.97
2023-02-04T05:35:27.089Z,102672.56
2023-02-04T05:37:55.346Z,102668.34
2023-02-04T05:40:22.889Z,102673.91
2023-02-04T05:42:49.407Z,102679.22
2023-02-04T05:45:17.107Z,102687.25
2023-02-04T05:47:43.579Z,102695.31
2023-02-04T05:50:10.740Z,102692.53
2023-02-04T05:52:36.963Z,102692.78
2023-02-04T05:55:03.332Z,102701.69
2023-02-04T05:57:30.065Z,102695.81
2023-02-04T05:59:56.417Z,102703.88
2023-02-04T06:02:22.740Z,102705.53
2023-02-04T06:04:49.023Z,102702.47
2023-02-04T06:07:15.564Z,102701.34
2023-02-04T06:09:41.866Z,102706.59
2023-02-04T06:12:08.241Z,102713.81
2023-02-04T06:14:34.530Z,102718.56
2023-02-04T06:17:01.068Z,102717.47
2023-02-04T06:19:27.349Z,102728.59
2023-02-04T06:21:53.624Z,102722.19
2023-02-04T06:24:20.163Z,102724.97
2023-02-04T06:26:46.642Z,102731.66
2023-02-04T06:29:13.276Z,102735.28
2023-02-04T06:31:39.833Z,102732.50
2023-02-04T06:34:06.600Z,102737.25
2023-02-04T06:36:33.716Z,102739.19
2023-02-04T06:39:01.234Z,102741.16
2023-02-04T06:41:27.469Z,102738.38
2023-02-04T06:43:53.785Z,102741.97
2023-02-04T06:46:20.157Z,102746.72
2023-02-04T06:48:46.721Z,102746.44
2023-02-04T06:51:13.032Z,102737.78
2023-02-04T06:53:40.283Z,102748.94
2023-02-04T06:56:06.884Z,102751.41
2023-02-04T06:58:33.366Z,102751.09
2023-02-04T07:00:59.918Z,102754.72
2023-02-04T07:03:26.202Z,102768.66
2023-02-04T07:05:54.511Z,102769.19
2023-02-04T07:08:21.866Z,102773.94
2023-02-04T07:10:48.157Z,102772.00
2023-02-04T07:13:14.527Z,102775.91
2023-02-04T07:15:41.057Z,102783.97
2023-02-04T07:18:07.388Z,102775.91
2023-02-04T07:20:34.279Z,102784.25
2023-02-04T07:23:00.926Z,102782.56
2023-02-04T07:25:27.473Z,102781.75
2023-02-04T07:27:53.791Z,102777.00
2023-02-04T07:30:20.257Z,102778.69
2023-02-04T07:32:46.712Z,102773.13
2023-02-04T07:35:13.300Z,102780.34
2023-02-04T07:37:39.795Z,102778.38
2023-02-04T07:40:06.803Z,102783.66
2023-02-04T07:42:33.042Z,102780.88
2023-02-04T07:45:01.707Z,102783.38
2023-02-04T07:47:28.177Z,102778.63
2023-02-04T07:49:56.981Z,102789.47
2023-02-04T07:52:26.506Z,102784.72
2023-02-04T07:54:52.820Z,102790.84
2023-02-04T07:57:20.472Z,102796.13
2023-02-04T07:59:47.016Z,102794.69
2023-02-04T08:02:13.274Z,102795.50
2023-02-04T08:04:39.732Z,102793.56
2023-02-04T08:07:06.638Z,102797.72
2023-02-04T08:09:34.108Z,102806.63
2023-02-04T08:12:03.843Z,102808.28
2023-02-04T08:14:30.674Z,102813.22
2023-02-04T08:16:57.219Z,102820.19
2023-02-04T08:19:23.934Z,102820.44
2023-02-04T08:21:50.400Z,102819.00
2023-02-04T08:24:17.186Z,102827.59
2023-02-04T08:26:45.449Z,102826.16
2023-02-04T08:29:12.245Z,102834.44
2023-02-04T08:31:38.737Z,102840.00
2023-02-04T08:34:05.882Z,102830.19
2023-02-04T08:36:33.267Z,102835.19
2023-02-04T08:39:01.853Z,102848.22
2023-02-04T08:41:30.257Z,102848.44
2023-02-04T08:43:56.995Z,102855.38
2023-02-04T08:46:23.344Z,102855.63
2023-02-04T08:48:49.607Z,102857.81
2023-02-04T08:51:17.196Z,102866.41
2023-02-04T08:53:43.541Z,102870.25
2023-02-04T08:56:10.701Z,102871.59
2023-02-04T08:58:37.023Z,102879.09
2023-02-04T09:01:03.652Z,102874.88
2023-02-04T09:03:29.963Z,102879.00
2023-02-04T09:05:56.548Z,102888.75
2023-02-04T09:08:23.056Z,102888.44
2023-02-04T09:10:50.617Z,102897.97
2023-02-04T09:13:19.507Z,102893.78
2023-02-04T09:15:46.933Z,102890.78
2023-02-04T09:18:17.886Z,102886.09
2023-02-04T09:20:47.694Z,102890.63
2023-02-04T09:23:14.358Z,102888.41
2023-02-04T09:25:41.175Z,102891.22
2023-02-04T09:28:10.060Z,102892.03
2023-02-04T09:30:37.663Z,102890.09
2023-02-04T09:33:04.261Z,102901.47
2023-02-04T09:35:30.469Z,102901.47
2023-02-04T09:37:56.768Z,102902.84
2023-02-04T09:40:25.111Z,102902.84
2023-02-04T09:42:51.753Z,102902.84
2023-02-04T09:45:20.517Z,102905.63
2023-02-04T09:47:46.791Z,102902.22
2023-02-04T09:50:15.682Z,102902.16
2023-02-04T09:52:42.587Z,102896.53
2023-02-04T09:55:12.996Z,102909.53
2023-02-04T09:57:41.141Z,102916.97
2023-02-04T10:00:27.262Z,102922.66
2023-02-04T10:02:53.760Z,102925.31
2023-02-04T10:05:24.929Z,102923.81
2023-02-04T10:07:51.247Z,102920.63
2023-02-04T10:10:18.680Z,102916.31
2023-02-04T10:12:48.412Z,102916.47
2023-02-04T10:15:15.805Z,102919.41
2023-02-04T10:17:42.782Z,102927.91
2023-02-04T10:20:12.569Z,102933.13
2023-02-04T10:22:39.752Z,102934.09
2023-02-04T10:25:16.236Z,102933.38
2023-02-04T10:27:53.465Z,102935.97
2023-02-04T10:30:21.601Z,102936.91
2023-02-04T10:32:48.153Z,102935.44
2023-02-04T10:35:15.502Z,102932.53
2023-02-04T10:37:41.838Z,102928.59
2023-02-04T10:40:27.213Z,102937.31
2023-02-04T10:42:53.529Z,102948.28
2023-02-04T10:45:23.656Z,102944.66
2023-02-04T10:47:51.128Z,102942.16
2023-02-04T10:50:18.390Z,102948.91
2023-02-04T10:52:47.315Z,102941.63
2023-02-04T10:55:15.720Z,102945.25
2023-02-04T10:57:43.773Z,102936.56
2023-02-04T11:00:20.266Z,102941.84
2023-02-04T11:02:55.535Z,102937.91
2023-02-04T11:05:23.512Z,102944.88
2023-02-04T11:07:51.448Z,102942.56
2023-02-04T11:10:20.866Z,102944.44
2023-02-04T11:12:53.240Z,102936.28
2023-02-04T11:15:38.772Z,102951.81
2023-02-04T11:18:05.958Z,102945.28
2023-02-04T11:20:33.606Z,102952.75
2023-02-04T11:23:19.050Z,102949.34
2023-02-04T11:25:45.428Z,102951.81
2023-02-04T11:28:34.914Z,102956.00
2023-02-04T11:31:02.109Z,102945.63
2023-02-04T11:33:37.552Z,102955.03
2023-02-04T11:36:05.436Z,102942.91
2023-02-04T11:38:32.860Z,102947.56
2023-02-04T11:40:59.765Z,102945.50
2023-02-04T11:43:26.803Z,102938.44
2023-02-04T11:46:03.855Z,102945.41
2023-02-04T11:48:30.309Z,102940.31
2023-02-04T11:50:57.581Z,102945.09
2023-02-04T11:53:24.948Z,102942.59
2023-02-04T11:55:51.211Z,102942.41
2023-02-04T11:58:18.324Z,102946.63
2023-02-04T12:00:45.171Z,102941.97
2023-02-04T12:03:22.203Z,102940.09
2023-02-04T12:05:49.975Z,102947.50
2023-02-04T12:08:22.756Z,102940.84
2023-02-04T12:10:50.344Z,102952.97
2023-02-04T12:13:18.500Z,102947.47
2023-02-04T12:15:52.332Z,102947.78
2023-02-04T12:18:18.800Z,102948.69
2023-02-04T12:20:45.064Z,102952.44
2023-02-04T12:23:11.307Z,102956.19
2023-02-04T12:25:37.796Z,102954.59
2023-02-04T12:28:04.177Z,102955.50
2023-02-04T12:30:30.561Z,102965.16
2023-02-04T12:32:56.880Z,102971.31
2023-02-04T12:35:23.533Z,102978.34
2023-02-04T12:37:50.045Z,102974.19
2023-02-04T12:40:17.482Z,102974.50
2023-02-04T12:42:43.700Z,102972.84
2023-02-04T12:45:11.670Z,102977.63
2023-02-04T12:47:38.371Z,102977.63
2023-02-04T12:50:05.850Z,102985.19
2023-02-04T12:52:32.162Z,102980.41
2023-02-04T12:55:02.419Z,102984.34
2023-02-04T12:57:28.722Z,102992.75
2023-02-04T12:59:57.773Z,102982.69
2023-02-04T13:02:24.079Z,102987.44
2023-02-04T13:04:50.354Z,102984.13
2023-02-04T13:07:16.582Z,102976.34
2023-02-04T13:09:42.826Z,102979.47
2023-02-04T13:12:09.137Z,102985.66
2023-02-04T13:14:35.412Z,102982.03
2023-02-04T13:17:01.733Z,102983.47
2023-02-04T13:19:28.012Z,102970.34
2023-02-04T13:21:54.327Z,102974.25
2023-02-04T13:24:20.574Z,102973.13
2023-02-04T13:26:47.106Z,102974.78
2023-02-04T13:29:13.358Z,102973.63
2023-02-04T13:31:40.716Z,102974.78
2023-02-04T13:34:07.194Z,102980.38
2023-02-04T13:36:34.307Z,102973.97
2023-02-04T13:39:00.898Z,102966.72
2023-02-04T13:41:27.890Z,102970.09
2023-02-04T13:43:54.487Z,102972.06
2023-02-04T13:46:22.376Z,102981.28
2023-02-04T13:48:50.606Z,102971.75
2023-02-04T13:51:17.310Z,102970.63
2023-02-04T13:53:43.597Z,102977.88
2023-02-04T13:56:10.197Z,102964.94
2023-02-04T13:58:36.859Z,102960.22
2023-02-04T14:01:04.645Z,102956.78
2023-02-04T14:03:32.352Z,102960.13
2023-02-04T14:05:58.576Z,102961.75
2023-02-04T14:08:24.937Z,102967.34
2023-02-04T14:10:51.422Z,102968.19
2023-02-04T14:13:17.878Z,102964.03
2023-02-04T14:15:44.161Z,102962.38
2023-02-04T14:18:12.540Z,102961.03
2023-02-04T14:20:40.137Z,102965.25
2023-02-04T14:23:06.428Z,102974.25
2023-02-04T14:25:32.684Z,102968.97
2023-02-04T14:28:00.296Z,102974.88
2023-02-04T14:30:27.733Z,102976.59
2023-02-04T14:32:54.725Z,102978.34
2023-02-04T14:35:21.511Z,102968.09
2023-02-04T14:37:47.792Z,102967.25
2023-02-04T14:40:14.987Z,102967.56
2023-02-04T14:42:41.728Z,102976.22
2023-02-04T14:45:09.988Z,102971.59
2023-02-04T14:47:37.031Z,102976.31
2023-02-04T14:50:04.356Z,102975.81
2023-02-04T14:52:30.664Z,102976.94
2023-02-04T14:54:57.195Z,102976.72
2023-02-04T14:57:24.943Z,102975.88
2023-02-04T14:59:51.525Z,102970.91
2023-02-04T15:02:18.067Z,102971.22
2023-02-04T15:04:44.890Z,102967.91
2023-02-04T15:07:11.567Z,102973.75
2023-02-04T15:09:38.072Z,102975.22
2023-02-04T15:12:04.994Z,102976.63
2023-02-04T15:14:31.955Z,102974.16
2023-02-04T15:16:58.285Z,102987.56
2023-02-04T15:19:25.425Z,102985.41
2023-02-04T15:21:52.652Z,102987.38
2023-02-04T15:24:19.146Z,102984.03
2023-02-04T15:26:45.445Z,102989.09
2023-02-04T15:29:11.699Z,102985.75
2023-02-04T15:31:38.058Z,102985.25
2023-02-04T15:34:06.180Z,102985.00
2023-02-04T15:36:32.596Z,102984.50
2023-02-04T15:38:59.098Z,102982.00
2023-02-04T15:41:25.610Z,102985.38
2023-02-04T15:43:52.084Z,102985.69
2023-02-04T15:46:18.616Z,102989.09
2023-02-04T15:48:45.118Z,102999.19
2023-02-04T15:51:11.401Z,103009.84
2023-02-04T15:53:38.011Z,103007.31
2023-02-04T15:56:05.193Z,103013.50
2023-02-04T15:58:31.804Z,103011.00
2023-02-04T16:00:58.306Z,103008.53
2023-02-04T16:03:24.978Z,103016.63
2023-02-04T16:05:51.946Z,103012.78
2023-02-04T16:08:18.296Z,103010.06
2023-02-04T16:10:44.761Z,103022.13
2023-02-04T16:13:11.085Z,103018.53
2023-02-04T16:15:37.716Z,103018.88
2023-02-04T16:18:04.090Z,103022.56
2023-02-04T16:20:30.316Z,103020.13
2023-02-04T16:22:56.605Z,103015.72
2023-02-04T16:25:23.776Z,103030.84
2023-02-04T16:27:50.247Z,103027.28
2023-02-04T16:30:16.696Z,103030.44
2023-02-04T16:32:44.733Z,103031.56
2023-02-04T16:35:13.388Z,103029.13
2023-02-04T16:37:40.565Z,103035.88
2023-02-04T16:40:07.158Z,103030.38
2023-02-04T16:42:33.569Z,103018.44
2023-02-04T16:45:00.104Z,103024.88
2023-02-04T16:47:26.455Z,103029.63
2023-02-04T16:49:53.807Z,103030.50
2023-02-04T16:52:20.039Z,103044.47
2023-02-04T16:54:46.679Z,103042.84
2023-02-04T16:57:14.567Z,103043.72
2023-02-04T16:59:41.076Z,103050.41
2023-02-04T17:02:07.890Z,103047.97
2023-02-04T17:04:34.821Z,103051.31
2023-02-04T17:07:01.154Z,103054.13
2023-02-04T17:09:27.849Z,103065.84
2023-02-04T17:11:54.377Z,103062.25
2023-02-04T17:14:22.155Z,103066.19
2023-02-04T17:16:51.493Z,103072.59
2023-02-04T17:19:19.105Z,103069.84
2023-02-04T17:21:46.072Z,103060.69
2023-02-04T17:24:12.532Z,103060.44
2023-02-04T17:26:39.646Z,103055.16
2023-02-04T17:29:13.936Z,103052.69
2023-02-04T17:31:45.802Z,103056.06
2023-02-04T17:34:13.400Z,103056.66
2023-02-04T17:36:39.762Z,103059.47
2023-02-04T17:39:07.446Z,103061.41
2023-02-04T17:41:34.440Z,103059.47
2023-02-04T17:44:01.586Z,103063.94
2023-02-04T17:46:27.943Z,103071.72
2023-02-04T17:48:54.252Z,103069.22
2023-02-04T17:51:20.553Z,103058.09
2023-02-04T17:53:46.849Z,103072.81
2023-02-04T17:56:14.075Z,103064.47
2023-02-04T17:58:40.889Z,103062.28
2023-02-04T18:01:15.551Z,103060.31
2023-02-04T18:03:46.637Z,103060.03
2023-02-04T18:06:23.814Z,103062.81
2023-02-04T18:08:51.272Z,103060.03
2023-02-04T18:11:22.731Z,103064.75
2023-02-04T18:13:49.008Z,103056.41
2023-02-04T18:16:24.555Z,103066.44
2023-02-04T18:18:53.455Z,103057.25
2023-02-04T18:21:21.766Z,103056.97
2023-02-04T18:23:57.413Z,103064.19
2023-02-04T18:26:24.691Z,103068.91
2023-02-04T18:28:51.303Z,103069.19
2023-02-04T18:31:23.784Z,103066.44
2023-02-04T18:33:50.279Z,103057.25
2023-02-04T18:36:19.776Z,103071.44
2023-02-04T18:38:46.346Z,103071.72
2023-02-04T18:41:18.770Z,103070.88
2023-02-04T18:43:50.335Z,103067.25
2023-02-04T18:46:27.795Z,103063.94
2023-02-04T18:49:01.648Z,103072.53
2023-02-04T18:51:40.714Z,103068.41
2023-02-04T18:54:26.914Z,103068.13
2023-02-04T18:56:54.109Z,103065.88
2023-02-04T18:59:21.809Z,103068.66
2023-02-04T19:01:49.169Z,103071.44
2023-02-04T19:04:22.100Z,103079.78
2023-02-04T19:06:50.925Z,103085.63
2023-02-04T19:09:23.949Z,103092.00
2023-02-04T19:11:51.759Z,103082.84
2023-02-04T19:14:22.016Z,103084.50
2023-02-04T19:16:50.897Z,103084.22
2023-02-04T19:19:25.721Z,103083.91
2023-02-04T19:21:52.101Z,103080.31
2023-02-04T19:24:23.459Z,103079.19
2023-02-04T19:26:57.643Z,103075.56
2023-02-04T19:29:30.183Z,103075.56
2023-02-04T19:32:00.280Z,103080.88
2023-02-04T19:34:28.825Z,103078.91
2023-02-04T19:36:55.687Z,103088.06
2023-02-04T19:39:27.943Z,103089.72
2023-02-04T19:41:54.586Z,103086.63
2023-02-04T19:44:36.832Z,103077.19
2023-02-04T19:47:23.786Z,103086.31
2023-02-04T19:49:50.636Z,103078.28
2023-02-04T19:52:36.556Z,103081.88
2023-02-04T19:55:18.101Z,103084.63
2023-02-04T19:57:45.179Z,103090.44
2023-02-04T20:00:31.739Z,103092.09
2023-02-04T20:02:58.547Z,103089.84
2023-02-04T20:05:29.241Z,103095.09
2023-02-04T20:07:55.722Z,103097.31
2023-02-04T20:10:26.200Z,103097.84
2023-02-04T20:12:59.024Z,103099.47
2023-02-04T20:15:25.452Z,103098.09
2023-02-04T20:17:52.436Z,103096.97
2023-02-04T20:20:24.107Z,103083.63
2023-02-04T20:22:50.591Z,103080.56
2023-02-04T20:25:19.870Z,103081.38
2023-02-04T20:27:48.119Z,103083.56
2023-02-04T20:30:17.448Z,103083.28
2023-02-04T20:32:47.745Z,103081.03
2023-02-04T20:35:14.006Z,103085.44
2023-02-04T20:37:42.348Z,103073.81
2023-02-04T20:40:22.323Z,103079.03
2023-02-04T20:42:52.935Z,103072.31
2023-02-04T20:45:22.346Z,103067.59
2023-02-04T20:47:51.066Z,103076.44
2023-02-04T20:50:26.688Z,103075.03
2023-02-04T20:52:52.880Z,103071.97
2023-02-04T20:55:22.400Z,103067.22
2023-02-04T20:57:49.125Z,103068.59
2023-02-04T21:00:24.531Z,103067.19
2023-02-04T21:02:51.132Z,103065.78
2023-02-04T21:05:22.252Z,103059.66
2023-02-04T21:07:48.636Z,103059.09
2023-02-04T21:10:15.252Z,103057.44
2023-02-04T21:12:45.590Z,103058.50
2023-02-04T21:15:11.971Z,103057.13
2023-02-04T21:17:39.705Z,103055.47
2023-02-04T21:20:06.113Z,103051.88
2023-02-04T21:22:32.345Z,103052.94
2023-02-04T21:24:58.614Z,103056.53
2023-02-04T21:27:26.542Z,103057.41
2023-02-04T21:29:53.357Z,103068.50
2023-02-04T21:32:19.751Z,103061.84
2023-02-04T21:34:46.021Z,103075.41
2023-02-04T21:37:12.310Z,103066.81
2023-02-04T21:39:38.596Z,103069.09
2023-02-04T21:42:11.163Z,103067.72
2023-02-04T21:44:37.927Z,103074.66
2023-02-04T21:47:04.237Z,103077.75
2023-02-04T21:49:30.682Z,103077.19
2023-02-04T21:51:57.182Z,103070.56
2023-02-04T21:54:23.799Z,103071.41
2023-02-04T21:56:50.069Z,103080.84
2023-02-04T21:59:18.886Z,103081.97
2023-02-04T22:01:45.392Z,103074.53
2023-02-04T22:04:12.256Z,103076.56
2023-02-04T22:06:39.761Z,103067.16
2023-02-04T22:09:06.075Z,103067.19
2023-02-04T22:11:32.323Z,103072.75
2023-02-04T22:13:58.618Z,103059.75
2023-02-04T22:16:24.977Z,103054.50
2023-02-04T22:18:51.560Z,103058.97
2023-02-04T22:21:18.036Z,103045.09
2023-02-04T22:23:44.251Z,103051.50
2023-02-04T22:26:10.493Z,103041.53
2023-02-04T22:28:38.172Z,103042.66
2023-02-04T22:31:04.569Z,103044.63
2023-02-04T22:33:30.866Z,103044.91
2023-02-04T22:35:57.139Z,103038.81
2023-02-04T22:38:23.396Z,103036.31
2023-02-04T22:40:50.215Z,103042.19
2023-02-04T22:43:16.528Z,103040.78
2023-02-04T22:45:42.869Z,103044.97
2023-02-04T22:48:09.322Z,103036.63
2023-02-04T22:50:35.585Z,103032.75
2023-02-04T22:53:01.959Z,103029.97
2023-02-04T22:55:28.207Z,103029.97
2023-02-04T22:57:54.485Z,103034.69
2023-02-04T23:00:20.882Z,103041.06
2023-02-04T23:02:47.421Z,103034.41
2023-02-04T23:05:14.024Z,103042.47
2023-02-04T23:07:40.335Z,103043.31
2023-02-04T23:10:07.001Z,103044.97
2023-02-04T23:12:33.268Z,103050.00
2023-02-04T23:14:59.656Z,103052.47
2023-02-04T23:17:25.931Z,103058.88
2023-02-04T23:19:52.238Z,103053.31
2023-02-04T23:22:18.727Z,103046.09
2023-02-04T23:24:45.104Z,103054.44
2023-02-04T23:27:12.062Z,103044.97
2023-02-04T23:29:39.440Z,103051.38
2023-02-04T23:32:06.068Z,103043.88
2023-02-04T23:34:33.165Z,103044.69
2023-02-04T23:36:59.675Z,103051.94
2023-02-04T23:39:26.439Z,103044.69
2023-02-04T23:41:53.180Z,103038.91
2023-02-04T23:44:19.547Z,103045.28
2023-02-04T23:46:46.022Z,103035.84
2023-02-04T23:49:12.359Z,103033.59
2023-02-04T23:51:39.883Z,103031.66
2023-02-04T23:54:07.468Z,103033.34
2023-02-04T23:56:33.950Z,103029.47
2023-02-04T23:59:01.381Z,103021.97
